Time;durP1;ratioP1;P1;durP2;ratioP2;P2;SDS_P1;SDS_P2;PMS_P1;PMS_P2;Temp;Humidity;BMP_temperature;BMP_pressure;BME280_temperature;BME280_humidity;BME280_pressure;Samples;Min_cycle;Max_cycle;Signal;HPM_P1;HPM_P2
2020/10/17 00:00:54;;;;;;;0.9;0.7;;;;;;;;;;;;;
2020/10/17 00:03:19;;;;;;;1;0.8;;;;;;;;;;;;;
2020/10/17 00:05:45;;;;;;;0.7;0.6;;;;;;;;;;;;;
2020/10/17 00:08:10;;;;;;;1.1;0.7;;;;;;;;;;;;;
2020/10/17 00:10:35;;;;;;;0.7;0.6;;;;;;;;;;;;;
2020/10/17 00:13:00;;;;;;;0.8;0.7;;;;;;;;;;;;;
2020/10/17 00:15:27;;;;;;;0.5;0.5;;;;;;;;;;;;;
2020/10/17 00:17:52;;;;;;;0.6;0.5;;;;;;;;;;;;;
2020/10/17 00:20:18;;;;;;;0.5;0.5;;;;;;;;;;;;;
2020/10/17 00:22:43;;;;;;;0.7;0.6;;;;;;;;;;;;;
2020/10/17 00:25:09;;;;;;;0.7;0.5;;;;;;;;;;;;;
2020/10/17 00:27:35;;;;;;;1.5;0.7;;;;;;;;;;;;;
2020/10/17 00:30:00;;;;;;;0.7;0.4;;;;;;;;;;;;;
2020/10/17 00:32:25;;;;;;;0.8;0.7;;;;;;;;;;;;;
2020/10/17 00:34:51;;;;;;;0.3;0.3;;;;;;;;;;;;;
2020/10/17 00:37:16;;;;;;;2.7;0.7;;;;;;;;;;;;;
2020/10/17 00:39:41;;;;;;;0.7;0.7;;;;;;;;;;;;;
2020/10/17 00:42:06;;;;;;;1.6;0.6;;;;;;;;;;;;;
2020/10/17 00:44:32;;;;;;;0.5;0.4;;;;;;;;;;;;;
2020/10/17 00:46:57;;;;;;;1.2;0.8;;;;;;;;;;;;;
2020/10/17 00:49:22;;;;;;;0.7;0.6;;;;;;;;;;;;;
2020/10/17 00:51:47;;;;;;;0.8;0.5;;;;;;;;;;;;;
2020/10/17 00:54:12;;;;;;;0.5;0.4;;;;;;;;;;;;;
2020/10/17 00:56:38;;;;;;;0.4;0.4;;;;;;;;;;;;;
2020/10/17 00:59:03;;;;;;;0.6;0.4;;;;;;;;;;;;;
2020/10/17 01:01:28;;;;;;;0.3;0.3;;;;;;;;;;;;;
2020/10/17 01:03:55;;;;;;;0.6;0.4;;;;;;;;;;;;;
2020/10/17 01:06:20;;;;;;;1;0.6;;;;;;;;;;;;;
2020/10/17 01:08:45;;;;;;;0.4;0.4;;;;;;;;;;;;;
2020/10/17 01:11:10;;;;;;;0.5;0.5;;;;;;;;;;;;;
2020/10/17 01:13:42;;;;;;;0.3;0.3;;;;;;;;;;;;;
2020/10/17 01:16:01;;;;;;;0.7;0.4;;;;;;;;;;;;;
2020/10/17 01:18:28;;;;;;;0.2;0.2;;;;;;;;;;;;;
2020/10/17 01:20:53;;;;;;;0.6;0.6;;;;;;;;;;;;;
2020/10/17 01:23:19;;;;;;;1.4;1.1;;;;;;;;;;;;;
2020/10/17 01:25:44;;;;;;;0.7;0.6;;;;;;;;;;;;;
2020/10/17 01:28:10;;;;;;;2.5;1;;;;;;;;;;;;;
2020/10/17 01:30:36;;;;;;;1.5;0.7;;;;;;;;;;;;;
2020/10/17 01:33:02;;;;;;;1.1;0.8;;;;;;;;;;;;;
2020/10/17 01:35:27;;;;;;;1.5;0.8;;;;;;;;;;;;;
2020/10/17 01:37:53;;;;;;;1.3;0.7;;;;;;;;;;;;;
2020/10/17 01:40:18;;;;;;;1;0.8;;;;;;;;;;;;;
2020/10/17 01:42:44;;;;;;;1.1;0.8;;;;;;;;;;;;;
2020/10/17 01:45:10;;;;;;;1;0.7;;;;;;;;;;;;;
2020/10/17 01:47:36;;;;;;;0.9;0.7;;;;;;;;;;;;;
2020/10/17 01:50:01;;;;;;;0.7;0.7;;;;;;;;;;;;;
2020/10/17 01:52:27;;;;;;;1.1;0.8;;;;;;;;;;;;;
2020/10/17 01:54:52;;;;;;;1.1;0.9;;;;;;;;;;;;;
2020/10/17 01:57:18;;;;;;;1.4;0.9;;;;;;;;;;;;;
2020/10/17 01:59:43;;;;;;;5.2;0.6;;;;;;;;;;;;;
2020/10/17 02:02:08;;;;;;;1;0.7;;;;;;;;;;;;;
2020/10/17 02:04:33;;;;;;;0.7;0.5;;;;;;;;;;;;;
2020/10/17 02:06:58;;;;;;;0.6;0.6;;;;;;;;;;;;;
2020/10/17 02:09:24;;;;;;;0.5;0.5;;;;;;;;;;;;;
2020/10/17 02:11:49;;;;;;;0.9;0.5;;;;;;;;;;;;;
2020/10/17 02:14:15;;;;;;;1.2;0.7;;;;;;;;;;;;;
2020/10/17 02:16:40;;;;;;;0.9;0.4;;;;;;;;;;;;;
2020/10/17 02:19:07;;;;;;;1.1;0.5;;;;;;;;;;;;;
2020/10/17 02:21:32;;;;;;;0.5;0.5;;;;;;;;;;;;;
2020/10/17 02:23:58;;;;;;;0.9;0.6;;;;;;;;;;;;;
2020/10/17 02:26:22;;;;;;;1;0.4;;;;;;;;;;;;;
2020/10/17 02:28:48;;;;;;;0.4;0.4;;;;;;;;;;;;;
2020/10/17 02:31:14;;;;;;;0.4;0.3;;;;;;;;;;;;;
2020/10/17 02:33:40;;;;;;;0.4;0.3;;;;;;;;;;;;;
2020/10/17 02:36:05;;;;;;;1;0.5;;;;;;;;;;;;;
2020/10/17 02:38:31;;;;;;;0.3;0.3;;;;;;;;;;;;;
2020/10/17 02:40:57;;;;;;;0.2;0.2;;;;;;;;;;;;;
2020/10/17 02:43:22;;;;;;;0.2;0.2;;;;;;;;;;;;;
2020/10/17 02:45:47;;;;;;;0.5;0.3;;;;;;;;;;;;;
2020/10/17 02:48:12;;;;;;;0.3;0.3;;;;;;;;;;;;;
2020/10/17 02:50:37;;;;;;;0.9;0.5;;;;;;;;;;;;;
2020/10/17 02:53:02;;;;;;;0.2;0.2;;;;;;;;;;;;;
2020/10/17 02:55:27;;;;;;;0.3;0.3;;;;;;;;;;;;;
2020/10/17 02:57:53;;;;;;;0.3;0.2;;;;;;;;;;;;;
2020/10/17 03:00:27;;;;;;;0.4;0.4;;;;;;;;;;;;;
2020/10/17 03:02:52;;;;;;;5.9;0.5;;;;;;;;;;;;;
2020/10/17 03:05:17;;;;;;;0.8;0.3;;;;;;;;;;;;;
2020/10/17 03:07:44;;;;;;;0.4;0.3;;;;;;;;;;;;;
2020/10/17 03:10:08;;;;;;;0.6;0.4;;;;;;;;;;;;;
2020/10/17 03:12:33;;;;;;;0.5;0.4;;;;;;;;;;;;;
2020/10/17 03:14:58;;;;;;;0.6;0.3;;;;;;;;;;;;;
2020/10/17 03:17:25;;;;;;;0.4;0.3;;;;;;;;;;;;;
2020/10/17 03:19:50;;;;;;;0.4;0.4;;;;;;;;;;;;;
2020/10/17 03:22:16;;;;;;;0.5;0.4;;;;;;;;;;;;;
2020/10/17 03:24:42;;;;;;;0.5;0.5;;;;;;;;;;;;;
2020/10/17 03:27:07;;;;;;;3.2;0.9;;;;;;;;;;;;;
2020/10/17 03:29:32;;;;;;;0.5;0.5;;;;;;;;;;;;;
2020/10/17 03:32:00;;;;;;;0.5;0.5;;;;;;;;;;;;;
2020/10/17 03:34:25;;;;;;;1.3;0.7;;;;;;;;;;;;;
2020/10/17 03:36:50;;;;;;;0.8;0.7;;;;;;;;;;;;;
2020/10/17 03:39:15;;;;;;;2.6;1.3;;;;;;;;;;;;;
2020/10/17 03:41:42;;;;;;;3.6;2;;;;;;;;;;;;;
2020/10/17 03:44:07;;;;;;;2.2;1.4;;;;;;;;;;;;;
2020/10/17 03:46:33;;;;;;;1.2;1;;;;;;;;;;;;;
2020/10/17 03:48:58;;;;;;;0.8;0.7;;;;;;;;;;;;;
2020/10/17 03:51:25;;;;;;;1.2;1.1;;;;;;;;;;;;;
2020/10/17 03:53:50;;;;;;;1.1;0.9;;;;;;;;;;;;;
2020/10/17 03:56:16;;;;;;;1.6;0.6;;;;;;;;;;;;;
2020/10/17 03:58:41;;;;;;;0.9;0.7;;;;;;;;;;;;;
2020/10/17 04:02:32;;;;;;;0.7;0.6;;;;;;;7.34;89.2959;937.2626;;;;
2020/10/17 04:04:57;;;;;;;1.1;0.6;;;;;;;7.52;88.37012;937.257;;;;
2020/10/17 04:07:24;;;;;;;0.5;0.5;;;;;;;7.61;87.62695;937.318;;;;
2020/10/17 04:09:51;;;;;;;0.6;0.5;;;;;;;7.58;87.60938;937.3074;;;;
2020/10/17 04:12:16;;;;;;;0.9;0.5;;;;;;;7.64;87.54297;937.3111;;;;
2020/10/17 04:14:41;;;;;;;0.3;0.3;;;;;;;7.74;87.02832;937.3056;;;;
2020/10/17 04:17:08;;;;;;;0.5;0.5;;;;;;;7.83;86.74023;937.2988;;;;
2020/10/17 04:19:33;;;;;;;0.3;0.3;;;;;;;7.83;86.88965;937.3164;;;;
2020/10/17 04:21:59;;;;;;;0.4;0.4;;;;;;;7.85;86.77832;937.2944;;;;
2020/10/17 04:24:24;;;;;;;0.6;0.6;;;;;;;7.89;86.5166;937.2866;;;;
2020/10/17 04:26:49;;;;;;;0.2;0.2;;;;;;;7.96;86.00781;937.3114;;;;
2020/10/17 04:29:14;;;;;;;0.5;0.3;;;;;;;8.01;85.73438;937.3436;;;;
2020/10/17 04:31:39;;;;;;;1;0.6;;;;;;;8.03;85.34082;937.3869;;;;
2020/10/17 04:34:04;;;;;;;0.7;0.3;;;;;;;8;85.74219;937.3312;;;;
2020/10/17 04:36:30;;;;;;;1.5;0.5;;;;;;;7.93;85.63867;937.3008;;;;
2020/10/17 04:38:55;;;;;;;1.1;0.5;;;;;;;7.81;85.75;937.2954;;;;
2020/10/17 04:41:20;;;;;;;0.4;0.4;;;;;;;7.79;86.24512;937.3122;;;;
2020/10/17 04:43:45;;;;;;;0.8;0.5;;;;;;;7.81;86.75977;937.2954;;;;
2020/10/17 04:46:12;;;;;;;5.9;0.7;;;;;;;7.84;86.8125;937.2698;;;;
2020/10/17 04:48:38;;;;;;;0.5;0.4;;;;;;;7.94;86.56934;937.3508;;;;
2020/10/17 04:51:03;;;;;;;1.6;0.6;;;;;;;8.02;86.22461;937.3122;;;;
2020/10/17 04:53:28;;;;;;;0.8;0.6;;;;;;;7.95;85.9375;937.3478;;;;
2020/10/17 04:55:58;;;;;;;0.8;0.6;;;;;;;7.97;86.41602;937.3354;;;;
2020/10/17 04:58:24;;;;;;;0.8;0.5;;;;;;;7.96;86.22266;937.348;;;;
2020/10/17 05:00:51;;;;;;;0.5;0.3;;;;;;;7.98;86.17188;937.3445;;;;
2020/10/17 05:03:16;;;;;;;0.2;0.2;;;;;;;7.98;85.82031;937.3365;;;;
2020/10/17 05:05:41;;;;;;;0.2;0.2;;;;;;;7.97;85.92969;937.3339;;;;
2020/10/17 05:08:06;;;;;;;0.2;0.2;;;;;;;7.96;85.90527;937.3409;;;;
2020/10/17 05:10:32;;;;;;;0.6;0.3;;;;;;;7.99;85.61523;937.2883;;;;
2020/10/17 05:12:57;;;;;;;0.1;0.1;;;;;;;7.88;85.43652;937.2927;;;;
2020/10/17 05:15:25;;;;;;;0.4;0.3;;;;;;;7.79;86.16797;937.3234;;;;
2020/10/17 05:17:50;;;;;;;0.1;0.1;;;;;;;7.73;86.0752;937.3151;;;;
2020/10/17 05:20:17;;;;;;;0.2;0.2;;;;;;;7.72;86.61621;937.2935;;;;
2020/10/17 05:22:43;;;;;;;0.4;0.3;;;;;;;7.72;86.41406;937.2729;;;;
2020/10/17 05:25:10;;;;;;;0.3;0.3;;;;;;;7.69;86.61133;937.3452;;;;
2020/10/17 05:27:35;;;;;;;0.4;0.2;;;;;;;7.57;86.88184;937.3553;;;;
2020/10/17 05:30:00;;;;;;;0.2;0.2;;;;;;;7.58;87.26953;937.3436;;;;
2020/10/17 05:32:26;;;;;;;0.5;0.5;;;;;;;7.64;87.05566;937.3808;;;;
2020/10/17 05:34:50;;;;;;;0.4;0.4;;;;;;;7.7;87.27246;937.3201;;;;
2020/10/17 05:37:15;;;;;;;1.5;0.7;;;;;;;7.76;87.19141;937.3845;;;;
2020/10/17 05:39:43;;;;;;;4.8;2;;;;;;;7.81;86.41895;937.3683;;;;
2020/10/17 05:42:08;;;;;;;1.6;1.2;;;;;;;7.85;86.45996;937.3753;;;;
2020/10/17 05:44:33;;;;;;;1.6;1.1;;;;;;;7.92;86.54297;937.3861;;;;
2020/10/17 05:46:58;;;;;;;1.4;1;;;;;;;7.9;86.67578;937.4246;;;;
2020/10/17 05:49:23;;;;;;;0.4;0.4;;;;;;;7.76;87.27051;937.4598;;;;
2020/10/17 05:51:55;;;;;;;0.3;0.3;;;;;;;7.67;87.78516;937.4739;;;;
2020/10/17 05:54:21;;;;;;;0.4;0.4;;;;;;;7.55;88.12598;937.4476;;;;
2020/10/17 05:56:46;;;;;;;0.4;0.4;;;;;;;7.51;88.30957;937.4858;;;;
2020/10/17 05:59:11;;;;;;;0.4;0.4;;;;;;;7.28;89.58691;937.5204;;;;
2020/10/17 06:01:36;;;;;;;0.3;0.3;;;;;;;7.51;89.19336;937.5292;;;;
2020/10/17 06:04:02;;;;;;;0.8;0.6;;;;;;;7.63;88.66211;937.5406;;;;
2020/10/17 06:06:27;;;;;;;1.9;0.5;;;;;;;7.72;88.11523;937.4774;;;;
2020/10/17 06:08:52;;;;;;;0.4;0.4;;;;;;;7.82;87.5332;937.5714;;;;
2020/10/17 06:11:17;;;;;;;0.7;0.5;;;;;;;7.89;86.69629;937.5394;;;;
2020/10/17 06:13:42;;;;;;;0.8;0.6;;;;;;;7.82;86.97656;937.6387;;;;
2020/10/17 06:16:07;;;;;;;0.7;0.6;;;;;;;7.79;86.95996;937.5697;;;;
2020/10/17 06:18:32;;;;;;;0.6;0.6;;;;;;;7.91;86.49609;937.6294;;;;
2020/10/17 06:20:57;;;;;;;1;0.7;;;;;;;7.93;86.05859;937.5892;;;;
2020/10/17 06:23:23;;;;;;;1;0.4;;;;;;;7.96;86.14355;937.646;;;;
2020/10/17 06:25:48;;;;;;;1.1;0.6;;;;;;;8.02;85.97266;937.6934;;;;
2020/10/17 06:28:14;;;;;;;0.4;0.3;;;;;;;7.98;86.51074;937.6869;;;;
2020/10/17 06:30:39;;;;;;;0.2;0.2;;;;;;;8.07;85.81348;937.7324;;;;
2020/10/17 06:33:04;;;;;;;0.4;0.4;;;;;;;8.09;85.44434;937.759;;;;
2020/10/17 06:35:35;;;;;;;1.5;0.4;;;;;;;8.17;85.14063;937.7802;;;;
2020/10/17 06:38:00;;;;;;;0.7;0.5;;;;;;;8.18;84.70117;937.7645;;;;
2020/10/17 06:40:27;;;;;;;0.5;0.3;;;;;;;8.06;85.00586;937.8298;;;;
2020/10/17 06:42:53;;;;;;;0.4;0.4;;;;;;;8.08;85.49707;937.8182;;;;
2020/10/17 06:45:22;;;;;;;0.4;0.4;;;;;;;8.08;85.24707;937.8285;;;;
2020/10/17 06:47:49;;;;;;;0.3;0.3;;;;;;;8.15;85.0918;937.8394;;;;
2020/10/17 06:50:15;;;;;;;0.9;0.6;;;;;;;8.21;84.89941;937.8622;;;;
2020/10/17 06:52:40;;;;;;;1.2;0.6;;;;;;;8.23;84.6416;937.8608;;;;
2020/10/17 06:55:05;;;;;;;0.5;0.4;;;;;;;8.23;84.94824;937.8696;;;;
2020/10/17 06:57:33;;;;;;;0.6;0.5;;;;;;;8.28;84.91406;937.9276;;;;
2020/10/17 06:59:59;;;;;;;0.6;0.6;;;;;;;8.35;85.05176;937.9536;;;;
2020/10/17 07:02:24;;;;;;;1;0.7;;;;;;;8.44;84.95508;937.9609;;;;
2020/10/17 07:04:49;;;;;;;2.6;1.5;;;;;;;8.41;84.99414;937.949;;;;
2020/10/17 07:07:14;;;;;;;1.9;1.2;;;;;;;8.37;83.63477;937.9905;;;;
2020/10/17 07:09:39;;;;;;;3.3;1.8;;;;;;;8.36;84.05469;938.0323;;;;
2020/10/17 07:12:04;;;;;;;3.4;1.5;;;;;;;8.37;84.35254;937.9961;;;;
2020/10/17 07:14:29;;;;;;;3;1.5;;;;;;;8.28;84.06152;937.9727;;;;
2020/10/17 07:16:55;;;;;;;1.8;1.3;;;;;;;8.37;85.02051;937.9936;;;;
2020/10/17 07:19:20;;;;;;;2.2;1.5;;;;;;;8.42;85.22461;938.0488;;;;
2020/10/17 07:21:45;;;;;;;1.8;1.3;;;;;;;8.54;85.09082;938.0397;;;;
2020/10/17 07:24:10;;;;;;;1.7;1.3;;;;;;;8.59;85.00684;938.0817;;;;
2020/10/17 07:26:37;;;;;;;5.4;3.4;;;;;;;8.62;83.79785;938.0786;;;;
2020/10/17 07:29:02;;;;;;;1.2;1.1;;;;;;;8.69;83.2207;938.0756;;;;
2020/10/17 07:31:28;;;;;;;1.1;0.9;;;;;;;8.79;83.21484;938.0764;;;;
2020/10/17 07:33:53;;;;;;;2.7;1.2;;;;;;;8.66;83.66797;938.1323;;;;
2020/10/17 07:36:19;;;;;;;1.5;1.2;;;;;;;8.68;83.66016;938.177;;;;
2020/10/17 07:38:44;;;;;;;2.5;0.9;;;;;;;8.65;84.15723;938.114;;;;
2020/10/17 07:41:10;;;;;;;1.7;0.7;;;;;;;;;;;;;
2020/10/17 07:43:34;;;;;;;0.9;0.7;;;;;;;;;;;;;
2020/10/17 07:45:59;;;;;;;0.8;0.8;;;;;;;;;;;;;
2020/10/17 07:48:25;;;;;;;2.7;1.1;;;;;;;;;;;;;
2020/10/17 07:50:50;;;;;;;1.7;1.2;;;;;;;;;;;;;
2020/10/17 07:53:15;;;;;;;1.8;1.1;;;;;;;;;;;;;
2020/10/17 07:55:44;;;;;;;4.7;1.4;;;;;;;;;;;;;
2020/10/17 07:58:09;;;;;;;0.8;0.8;;;;;;;;;;;;;
2020/10/17 08:00:35;;;;;;;1;0.6;;;;;;;;;;;;;
2020/10/17 08:03:00;;;;;;;2.7;0.7;;;;;;;;;;;;;
2020/10/17 08:05:25;;;;;;;1.3;0.7;;;;;;;;;;;;;
2020/10/17 08:07:50;;;;;;;1.2;0.8;;;;;;;;;;;;;
2020/10/17 08:10:16;;;;;;;1.5;0.9;;;;;;;;;;;;;
2020/10/17 08:12:41;;;;;;;2.5;1;;;;;;;;;;;;;
2020/10/17 08:15:06;;;;;;;0.8;0.8;;;;;;;;;;;;;
2020/10/17 08:17:31;;;;;;;1.2;0.7;;;;;;;;;;;;;
2020/10/17 08:20:00;;;;;;;1.7;1;;;;;;;;;;;;;
2020/10/17 08:22:23;;;;;;;1.4;1;;;;;;;;;;;;;
2020/10/17 08:24:49;;;;;;;3.4;1.1;;;;;;;;;;;;;
2020/10/17 08:27:14;;;;;;;1;0.9;;;;;;;;;;;;;
2020/10/17 08:29:41;;;;;;;1.3;0.9;;;;;;;;;;;;;
2020/10/17 08:32:05;;;;;;;1.4;1;;;;;;;;;;;;;
2020/10/17 08:34:31;;;;;;;1.5;1.1;;;;;;;;;;;;;
2020/10/17 08:36:56;;;;;;;1.5;1;;;;;;;;;;;;;
2020/10/17 08:39:21;;;;;;;1.3;0.8;;;;;;;;;;;;;
2020/10/17 08:41:46;;;;;;;2;1.2;;;;;;;;;;;;;
2020/10/17 08:44:11;;;;;;;1.2;1.1;;;;;;;;;;;;;
2020/10/17 08:46:36;;;;;;;1.4;1.2;;;;;;;;;;;;;
2020/10/17 08:49:01;;;;;;;2.3;1.5;;;;;;;;;;;;;
2020/10/17 08:51:27;;;;;;;1.4;0.9;;;;;;;;;;;;;
2020/10/17 08:53:52;;;;;;;2;1.1;;;;;;;;;;;;;
2020/10/17 08:56:18;;;;;;;1.5;0.9;;;;;;;;;;;;;
2020/10/17 08:58:43;;;;;;;1.5;0.9;;;;;;;;;;;;;
2020/10/17 09:01:11;;;;;;;1.6;0.9;;;;;;;;;;;;;
2020/10/17 09:03:36;;;;;;;1;0.7;;;;;;;;;;;;;
2020/10/17 09:06:01;;;;;;;1.6;1;;;;;;;;;;;;;
2020/10/17 09:08:26;;;;;;;1.5;0.7;;;;;;;;;;;;;
2020/10/17 09:10:52;;;;;;;0.8;0.6;;;;;;;;;;;;;
2020/10/17 09:13:17;;;;;;;1.8;1;;;;;;;;;;;;;
2020/10/17 09:15:42;;;;;;;1;0.9;;;;;;;;;;;;;
2020/10/17 09:18:07;;;;;;;2.7;1.4;;;;;;;;;;;;;
2020/10/17 09:20:33;;;;;;;2.2;1;;;;;;;;;;;;;
2020/10/17 09:22:57;;;;;;;2;0.9;;;;;;;;;;;;;
2020/10/17 09:25:22;;;;;;;1.1;1;;;;;;;;;;;;;
2020/10/17 09:27:48;;;;;;;0.9;0.7;;;;;;;;;;;;;
2020/10/17 09:30:14;;;;;;;0.9;0.8;;;;;;;;;;;;;
2020/10/17 09:32:40;;;;;;;0.8;0.8;;;;;;;;;;;;;
2020/10/17 09:35:05;;;;;;;2.1;1.1;;;;;;;;;;;;;
2020/10/17 09:37:30;;;;;;;1.8;1.2;;;;;;;;;;;;;
2020/10/17 09:39:55;;;;;;;1.6;1.2;;;;;;;;;;;;;
2020/10/17 09:42:21;;;;;;;1.5;1;;;;;;;;;;;;;
2020/10/17 09:44:46;;;;;;;1.1;0.9;;;;;;;;;;;;;
2020/10/17 09:47:11;;;;;;;1.6;0.9;;;;;;;;;;;;;
2020/10/17 09:49:37;;;;;;;1.1;0.8;;;;;;;;;;;;;
2020/10/17 09:52:02;;;;;;;2;1.2;;;;;;;;;;;;;
2020/10/17 09:54:27;;;;;;;2.6;1.5;;;;;;;;;;;;;
2020/10/17 09:56:54;;;;;;;2.3;1.4;;;;;;;;;;;;;
2020/10/17 09:59:18;;;;;;;1.8;1.2;;;;;;;;;;;;;
2020/10/17 10:01:43;;;;;;;1;0.9;;;;;;;;;;;;;
2020/10/17 10:04:08;;;;;;;2.5;1.3;;;;;;;;;;;;;
2020/10/17 10:06:33;;;;;;;1.4;1.2;;;;;;;;;;;;;
2020/10/17 10:08:58;;;;;;;2.5;1.3;;;;;;;;;;;;;
2020/10/17 10:11:23;;;;;;;3.9;1.4;;;;;;;;;;;;;
2020/10/17 10:13:49;;;;;;;4.3;1.3;;;;;;;;;;;;;
2020/10/17 10:16:14;;;;;;;2.5;1.3;;;;;;;;;;;;;
2020/10/17 10:18:39;;;;;;;2.7;1.5;;;;;;;;;;;;;
2020/10/17 10:21:04;;;;;;;4.2;1.9;;;;;;;;;;;;;
2020/10/17 10:23:30;;;;;;;2.4;1.7;;;;;;;;;;;;;
2020/10/17 10:25:56;;;;;;;2.8;1.4;;;;;;;;;;;;;
2020/10/17 10:28:21;;;;;;;2.3;1.5;;;;;;;;;;;;;
2020/10/17 10:30:47;;;;;;;4.3;1.8;;;;;;;;;;;;;
2020/10/17 10:33:19;;;;;;;2.3;1.5;;;;;;;;;;;;;
2020/10/17 10:35:38;;;;;;;3.3;1.7;;;;;;;;;;;;;
2020/10/17 10:38:03;;;;;;;3.1;1.5;;;;;;;;;;;;;
2020/10/17 10:40:28;;;;;;;3.2;1.4;;;;;;;;;;;;;
2020/10/17 10:42:54;;;;;;;3.1;1.3;;;;;;;;;;;;;
2020/10/17 10:45:19;;;;;;;2.6;1.4;;;;;;;;;;;;;
2020/10/17 10:47:44;;;;;;;2.2;1.7;;;;;;;;;;;;;
2020/10/17 10:50:09;;;;;;;2.6;1.7;;;;;;;;;;;;;
2020/10/17 10:52:34;;;;;;;2.9;1.9;;;;;;;;;;;;;
2020/10/17 10:54:59;;;;;;;3.8;1.8;;;;;;;;;;;;;
2020/10/17 10:57:25;;;;;;;5.1;1.8;;;;;;;;;;;;;
2020/10/17 10:59:52;;;;;;;5.1;2.2;;;;;;;;;;;;;
2020/10/17 11:02:15;;;;;;;3.9;1.8;;;;;;;;;;;;;
2020/10/17 11:04:41;;;;;;;2.5;1.5;;;;;;;;;;;;;
2020/10/17 11:07:06;;;;;;;2.3;1.4;;;;;;;;;;;;;
2020/10/17 11:09:33;;;;;;;1.8;1.5;;;;;;;;;;;;;
2020/10/17 11:11:58;;;;;;;3.1;2.1;;;;;;;;;;;;;
2020/10/17 11:14:23;;;;;;;3.9;1.9;;;;;;;;;;;;;
2020/10/17 11:16:48;;;;;;;2.5;1.5;;;;;;;;;;;;;
2020/10/17 11:19:14;;;;;;;2.8;1.7;;;;;;;;;;;;;
2020/10/17 11:21:42;;;;;;;3.9;1.7;;;;;;;;;;;;;
2020/10/17 11:24:06;;;;;;;1.6;1.2;;;;;;;;;;;;;
2020/10/17 11:26:31;;;;;;;2.9;1.4;;;;;;;;;;;;;
2020/10/17 11:28:57;;;;;;;2;1.4;;;;;;;;;;;;;
2020/10/17 11:31:22;;;;;;;2;1.6;;;;;;;;;;;;;
2020/10/17 11:33:48;;;;;;;2.2;1.5;;;;;;;;;;;;;
2020/10/17 11:36:13;;;;;;;2.7;1.4;;;;;;;;;;;;;
2020/10/17 11:38:40;;;;;;;2.8;1.9;;;;;;;;;;;;;
2020/10/17 11:41:05;;;;;;;4;2.3;;;;;;;;;;;;;
2020/10/17 11:43:30;;;;;;;2.9;2;;;;;;;;;;;;;
2020/10/17 11:45:56;;;;;;;3.1;2;;;;;;;;;;;;;
2020/10/17 11:48:23;;;;;;;2.6;1.8;;;;;;;;;;;;;
2020/10/17 11:50:46;;;;;;;2;1.6;;;;;;;;;;;;;
2020/10/17 11:53:12;;;;;;;2.5;1.4;;;;;;;;;;;;;
2020/10/17 11:55:43;;;;;;;2.3;1.7;;;;;;;;;;;;;
2020/10/17 11:58:09;;;;;;;2.6;1.8;;;;;;;;;;;;;
2020/10/17 12:00:38;;;;;;;2.3;1.7;;;;;;;;;;;;;
2020/10/17 12:03:03;;;;;;;2.3;1.5;;;;;;;;;;;;;
2020/10/17 12:05:28;;;;;;;7.2;1.9;;;;;;;;;;;;;
2020/10/17 12:07:53;;;;;;;3.9;2;;;;;;;;;;;;;
2020/10/17 12:10:18;;;;;;;3.4;2;;;;;;;;;;;;;
2020/10/17 12:12:44;;;;;;;1.6;1.2;;;;;;;;;;;;;
2020/10/17 12:15:09;;;;;;;2.6;1.7;;;;;;;;;;;;;
2020/10/17 12:17:35;;;;;;;7.9;4.2;;;;;;;;;;;;;
2020/10/17 12:20:00;;;;;;;5.5;1.9;;;;;;;;;;;;;
2020/10/17 12:22:26;;;;;;;2.8;2;;;;;;;;;;;;;
2020/10/17 12:24:51;;;;;;;1.4;1;;;;;;;;;;;;;
2020/10/17 12:27:17;;;;;;;2.1;1.5;;;;;;;;;;;;;
2020/10/17 12:29:42;;;;;;;2.2;1.5;;;;;;;;;;;;;
2020/10/17 12:32:09;;;;;;;1.7;1.3;;;;;;;;;;;;;
2020/10/17 12:34:34;;;;;;;2.5;1.8;;;;;;;;;;;;;
2020/10/17 12:36:59;;;;;;;3.8;1.6;;;;;;;;;;;;;
2020/10/17 12:39:24;;;;;;;2.4;1.5;;;;;;;;;;;;;
2020/10/17 12:41:49;;;;;;;3.6;1.7;;;;;;;;;;;;;
2020/10/17 12:44:14;;;;;;;2.2;1.6;;;;;;;;;;;;;
2020/10/17 12:46:40;;;;;;;2.3;1.6;;;;;;;;;;;;;
2020/10/17 12:49:05;;;;;;;2.1;1.6;;;;;;;;;;;;;
2020/10/17 12:51:30;;;;;;;2.8;1.5;;;;;;;;;;;;;
2020/10/17 12:53:56;;;;;;;4;1.9;;;;;;;;;;;;;
2020/10/17 12:56:22;;;;;;;3;1.8;;;;;;;;;;;;;
2020/10/17 12:58:47;;;;;;;2;1.7;;;;;;;;;;;;;
2020/10/17 13:01:12;;;;;;;2.3;1.3;;;;;;;;;;;;;
2020/10/17 13:03:37;;;;;;;2.1;1.5;;;;;;;;;;;;;
2020/10/17 13:06:02;;;;;;;3.7;1.7;;;;;;;;;;;;;
2020/10/17 13:08:28;;;;;;;2.6;1.6;;;;;;;;;;;;;
2020/10/17 13:10:54;;;;;;;2.5;1.7;;;;;;;;;;;;;
2020/10/17 13:13:19;;;;;;;2.7;1.9;;;;;;;;;;;;;
2020/10/17 13:15:45;;;;;;;2.8;1.9;;;;;;;;;;;;;
2020/10/17 13:18:10;;;;;;;3.4;1.9;;;;;;;;;;;;;
2020/10/17 13:20:40;;;;;;;2.5;1.9;;;;;;;;;;;;;
2020/10/17 13:23:07;;;;;;;4.1;2.3;;;;;;;;;;;;;
2020/10/17 13:25:32;;;;;;;4.7;2.3;;;;;;;;;;;;;
2020/10/17 13:27:58;;;;;;;2.8;1.9;;;;;;;;;;;;;
2020/10/17 13:30:23;;;;;;;3.2;1.7;;;;;;;;;;;;;
2020/10/17 13:32:49;;;;;;;2;1.5;;;;;;;;;;;;;
2020/10/17 13:35:14;;;;;;;2.9;1.9;;;;;;;;;;;;;
2020/10/17 13:37:39;;;;;;;2.4;1.5;;;;;;;;;;;;;
2020/10/17 13:40:05;;;;;;;3.4;2;;;;;;;;;;;;;
2020/10/17 13:42:30;;;;;;;2.8;1.7;;;;;;;;;;;;;
2020/10/17 13:44:55;;;;;;;3.4;2;;;;;;;;;;;;;
2020/10/17 13:47:20;;;;;;;3.2;1.5;;;;;;;;;;;;;
2020/10/17 13:49:45;;;;;;;4.8;2.1;;;;;;;;;;;;;
2020/10/17 13:52:10;;;;;;;3.9;2.3;;;;;;;;;;;;;
2020/10/17 13:54:36;;;;;;;3.9;2.4;;;;;;;;;;;;;
2020/10/17 13:57:01;;;;;;;2.8;2.2;;;;;;;;;;;;;
2020/10/17 13:59:26;;;;;;;3.2;2;;;;;;;;;;;;;
2020/10/17 14:01:51;;;;;;;4.6;2.3;;;;;;;;;;;;;
2020/10/17 14:04:16;;;;;;;4.4;2.5;;;;;;;;;;;;;
2020/10/17 14:06:42;;;;;;;4.3;2.1;;;;;;;;;;;;;
2020/10/17 14:09:07;;;;;;;2.9;2;;;;;;;;;;;;;
2020/10/17 14:11:32;;;;;;;3.4;2.1;;;;;;;;;;;;;
2020/10/17 14:13:57;;;;;;;3.3;1.8;;;;;;;;;;;;;
2020/10/17 14:16:22;;;;;;;3.8;2.2;;;;;;;;;;;;;
2020/10/17 14:18:47;;;;;;;2.5;1.7;;;;;;;;;;;;;
2020/10/17 14:21:13;;;;;;;4.1;2.2;;;;;;;;;;;;;
2020/10/17 14:23:39;;;;;;;5;2.7;;;;;;;;;;;;;
2020/10/17 14:26:03;;;;;;;5;2.4;;;;;;;;;;;;;
2020/10/17 14:28:29;;;;;;;3.8;2.1;;;;;;;;;;;;;
2020/10/17 14:30:54;;;;;;;3.6;1.9;;;;;;;;;;;;;
2020/10/17 14:33:19;;;;;;;3.7;2.4;;;;;;;;;;;;;
2020/10/17 14:35:44;;;;;;;2.9;2;;;;;;;;;;;;;
2020/10/17 14:38:09;;;;;;;2.2;1.9;;;;;;;;;;;;;
2020/10/17 14:40:35;;;;;;;4.8;1.9;;;;;;;;;;;;;
2020/10/17 14:43:00;;;;;;;2.9;1.9;;;;;;;;;;;;;
2020/10/17 14:45:25;;;;;;;5.9;3.1;;;;;;;;;;;;;
2020/10/17 14:47:52;;;;;;;5;2.1;;;;;;;;;;;;;
2020/10/17 14:50:17;;;;;;;5.4;2.9;;;;;;;;;;;;;
2020/10/17 14:52:43;;;;;;;5.6;3;;;;;;;;;;;;;
2020/10/17 14:55:08;;;;;;;5.3;2.5;;;;;;;;;;;;;
2020/10/17 14:57:36;;;;;;;3.2;2.1;;;;;;;;;;;;;
2020/10/17 15:00:01;;;;;;;3.8;2;;;;;;;;;;;;;
2020/10/17 15:02:27;;;;;;;4.2;2.7;;;;;;;;;;;;;
2020/10/17 15:04:52;;;;;;;3.5;2.4;;;;;;;;;;;;;
2020/10/17 15:07:18;;;;;;;3.7;2.4;;;;;;;;;;;;;
2020/10/17 15:09:43;;;;;;;2.8;2;;;;;;;;;;;;;
2020/10/17 15:12:10;;;;;;;4.7;2.3;;;;;;;;;;;;;
2020/10/17 15:14:35;;;;;;;3.6;2.2;;;;;;;;;;;;;
2020/10/17 15:17:04;;;;;;;3.3;2.4;;;;;;;;;;;;;
2020/10/17 15:19:27;;;;;;;5;3;;;;;;;;;;;;;
2020/10/17 15:21:53;;;;;;;7.7;3.1;;;;;;;;;;;;;
2020/10/17 15:24:18;;;;;;;5.1;3.2;;;;;;;;;;;;;
2020/10/17 15:26:44;;;;;;;7.1;3.4;;;;;;;;;;;;;
2020/10/17 15:29:09;;;;;;;5.2;3.3;;;;;;;;;;;;;
2020/10/17 15:31:35;;;;;;;4.4;2.8;;;;;;;;;;;;;
2020/10/17 15:34:00;;;;;;;3.1;2.5;;;;;;;;;;;;;
2020/10/17 15:36:26;;;;;;;5.2;2.5;;;;;;;;;;;;;
2020/10/17 15:38:52;;;;;;;4.6;2.9;;;;;;;;;;;;;
2020/10/17 15:41:18;;;;;;;4.1;3;;;;;;;;;;;;;
2020/10/17 15:43:43;;;;;;;6;2.8;;;;;;;;;;;;;
2020/10/17 15:46:08;;;;;;;3.5;2.4;;;;;;;;;;;;;
2020/10/17 15:48:34;;;;;;;3.9;2.6;;;;;;;;;;;;;
2020/10/17 15:50:58;;;;;;;6.7;3.3;;;;;;;;;;;;;
2020/10/17 15:53:24;;;;;;;6.1;4;;;;;;;;;;;;;
2020/10/17 15:55:49;;;;;;;6.6;4.2;;;;;;;;;;;;;
2020/10/17 15:58:15;;;;;;;5.1;3.2;;;;;;;;;;;;;
2020/10/17 16:00:40;;;;;;;4.3;2.9;;;;;;;;;;;;;
2020/10/17 16:03:07;;;;;;;4.3;2.7;;;;;;;;;;;;;
2020/10/17 16:05:32;;;;;;;6.4;3.4;;;;;;;;;;;;;
2020/10/17 16:07:58;;;;;;;4.3;2.4;;;;;;;;;;;;;
2020/10/17 16:10:23;;;;;;;5.5;2.9;;;;;;;;;;;;;
2020/10/17 16:12:49;;;;;;;6.3;3.7;;;;;;;;;;;;;
2020/10/17 16:15:16;;;;;;;5.7;3;;;;;;;;;;;;;
2020/10/17 16:17:41;;;;;;;5.8;2.9;;;;;;;;;;;;;
2020/10/17 16:20:07;;;;;;;3.2;2.4;;;;;;;;;;;;;
2020/10/17 16:22:32;;;;;;;4.8;2.6;;;;;;;;;;;;;
2020/10/17 16:24:57;;;;;;;4.1;2.7;;;;;;;;;;;;;
2020/10/17 16:27:22;;;;;;;6.1;3.6;;;;;;;;;;;;;
2020/10/17 16:29:47;;;;;;;5;2.9;;;;;;;;;;;;;
2020/10/17 16:32:12;;;;;;;6;3.5;;;;;;;;;;;;;
2020/10/17 16:34:38;;;;;;;5.4;3.6;;;;;;;;;;;;;
2020/10/17 16:37:02;;;;;;;5.2;3.3;;;;;;;;;;;;;
2020/10/17 16:39:29;;;;;;;7.9;4.5;;;;;;;;;;;;;
2020/10/17 16:41:54;;;;;;;8.8;4.2;;;;;;;;;;;;;
2020/10/17 16:44:19;;;;;;;6.1;3.1;;;;;;;;;;;;;
2020/10/17 16:46:44;;;;;;;7.5;3.1;;;;;;;;;;;;;
2020/10/17 16:49:09;;;;;;;6.3;3;;;;;;;;;;;;;
2020/10/17 16:51:34;;;;;;;5.5;3.1;;;;;;;;;;;;;
2020/10/17 16:53:59;;;;;;;5.2;2.8;;;;;;;;;;;;;
2020/10/17 16:56:25;;;;;;;3.1;2.1;;;;;;;;;;;;;
2020/10/17 16:58:50;;;;;;;3.2;2.2;;;;;;;;;;;;;
2020/10/17 17:01:18;;;;;;;2.1;1.6;;;;;;;;;;;;;
2020/10/17 17:03:43;;;;;;;4.6;2.9;;;;;;;;;;;;;
2020/10/17 17:06:08;;;;;;;8.4;3.6;;;;;;;;;;;;;
2020/10/17 17:08:33;;;;;;;6.6;3.8;;;;;;;;;;;;;
2020/10/17 17:11:00;;;;;;;4.8;3.2;;;;;;;;;;;;;
2020/10/17 17:13:25;;;;;;;7.7;3.3;;;;;;;;;;;;;
2020/10/17 17:15:57;;;;;;;5;2.7;;;;;;;;;;;;;
2020/10/17 17:18:18;;;;;;;3.7;2.8;;;;;;;;;;;;;
2020/10/17 17:20:45;;;;;;;4.8;3.1;;;;;;;;;;;;;
2020/10/17 17:23:10;;;;;;;5.7;3.1;;;;;;;;;;;;;
2020/10/17 17:25:36;;;;;;;4.3;2.7;;;;;;;;;;;;;
2020/10/17 17:28:01;;;;;;;3.7;2.5;;;;;;;;;;;;;
2020/10/17 17:30:27;;;;;;;2.8;1.9;;;;;;;;;;;;;
2020/10/17 17:32:51;;;;;;;4.6;2.1;;;;;;;;;;;;;
2020/10/17 17:35:17;;;;;;;5.9;3;;;;;;;;;;;;;
2020/10/17 17:37:41;;;;;;;5.5;2.8;;;;;;;;;;;;;
2020/10/17 17:40:06;;;;;;;4.6;3;;;;;;;;;;;;;
2020/10/17 17:42:32;;;;;;;6.2;3.4;;;;;;;;;;;;;
2020/10/17 17:44:57;;;;;;;4.5;2.9;;;;;;;;;;;;;
2020/10/17 17:47:22;;;;;;;4.1;2.5;;;;;;;;;;;;;
2020/10/17 17:49:47;;;;;;;2.9;1.9;;;;;;;;;;;;;
2020/10/17 17:52:13;;;;;;;4.5;2.5;;;;;;;;;;;;;
2020/10/17 17:54:38;;;;;;;3.1;1.9;;;;;;;;;;;;;
2020/10/17 17:57:03;;;;;;;3.4;1.9;;;;;;;;;;;;;
2020/10/17 17:59:28;;;;;;;3.2;2;;;;;;;;;;;;;
2020/10/17 18:01:53;;;;;;;2.7;1.7;;;;;;;;;;;;;
2020/10/17 18:04:19;;;;;;;3.5;2.1;;;;;;;;;;;;;
2020/10/17 18:06:44;;;;;;;2.9;2;;;;;;;;;;;;;
2020/10/17 18:09:09;;;;;;;3;2.1;;;;;;;;;;;;;
2020/10/17 18:11:34;;;;;;;4.2;2.5;;;;;;;;;;;;;
2020/10/17 18:14:01;;;;;;;2.4;2;;;;;;;;;;;;;
2020/10/17 18:16:26;;;;;;;5.2;2.6;;;;;;;;;;;;;
2020/10/17 18:18:52;;;;;;;5.2;2.5;;;;;;;;;;;;;
2020/10/17 18:21:18;;;;;;;4.3;2.5;;;;;;;;;;;;;
2020/10/17 18:23:43;;;;;;;3.8;2.5;;;;;;;;;;;;;
2020/10/17 18:26:08;;;;;;;7;2.6;;;;;;;;;;;;;
2020/10/17 18:28:35;;;;;;;4.5;2.4;;;;;;;;;;;;;
2020/10/17 18:31:00;;;;;;;5.1;2.8;;;;;;;;;;;;;
2020/10/17 18:33:26;;;;;;;6.2;3.6;;;;;;;;;;;;;
2020/10/17 18:35:51;;;;;;;5.5;3.4;;;;;;;;;;;;;
2020/10/17 18:38:17;;;;;;;3.7;2.5;;;;;;;;;;;;;
2020/10/17 18:40:42;;;;;;;4.4;2.7;;;;;;;;;;;;;
2020/10/17 18:43:07;;;;;;;4.1;2.6;;;;;;;;;;;;;
2020/10/17 18:45:33;;;;;;;5;3;;;;;;;;;;;;;
2020/10/17 18:47:58;;;;;;;4.1;2.6;;;;;;;;;;;;;
2020/10/17 18:50:23;;;;;;;7.7;3.2;;;;;;;;;;;;;
2020/10/17 18:52:48;;;;;;;5.2;2.8;;;;;;;;;;;;;
2020/10/17 18:55:13;;;;;;;4.2;2.7;;;;;;;;;;;;;
2020/10/17 18:57:38;;;;;;;6.7;3.9;;;;;;;;;;;;;
2020/10/17 19:00:08;;;;;;;6.2;3.5;;;;;;;;;;;;;
2020/10/17 19:02:28;;;;;;;4.6;2.6;;;;;;;;;;;;;